sensor_id;sensor_type;location;lat;lon;timestamp;P1;durP1;ratioP1;P2;durP2;ratioP2
60464;SDS011;46314;52.392;9.758;2022-10-16T00:01:05;2.28;;;1.52;;
60464;SDS011;46314;52.392;9.758;2022-10-16T00:03:33;2.25;;;0.80;;
60464;SDS011;46314;52.392;9.758;2022-10-16T00:05:59;3.70;;;1.40;;
60464;SDS011;46314;52.392;9.758;2022-10-16T00:08:27;2.28;;;1.17;;
60464;SDS011;46314;52.392;9.758;2022-10-16T00:10:58;3.53;;;1.45;;
60464;SDS011;46314;52.392;9.758;2022-10-16T00:13:28;3.97;;;0.90;;
60464;SDS011;46314;52.392;9.758;2022-10-16T00:15:55;4.32;;;1.38;;
60464;SDS011;46314;52.392;9.758;2022-10-16T00:18:21;2.00;;;0.82;;
60464;SDS011;46314;52.392;9.758;2022-10-16T00:20:48;2.00;;;1.00;;
60464;SDS011;46314;52.392;9.758;2022-10-16T00:23:14;3.22;;;1.10;;
60464;SDS011;46314;52.392;9.758;2022-10-16T00:25:41;3.10;;;1.05;;
60464;SDS011;46314;52.392;9.758;2022-10-16T00:28:07;1.15;;;0.70;;
60464;SDS011;46314;52.392;9.758;2022-10-16T00:30:36;1.40;;;1.20;;
60464;SDS011;46314;52.392;9.758;2022-10-16T00:33:03;2.08;;;0.90;;
60464;SDS011;46314;52.392;9.758;2022-10-16T00:35:30;2.20;;;1.00;;
60464;SDS011;46314;52.392;9.758;2022-10-16T00:37:57;4.22;;;0.88;;
60464;SDS011;46314;52.392;9.758;2022-10-16T00:40:23;2.38;;;0.82;;
60464;SDS011;46314;52.392;9.758;2022-10-16T00:42:49;1.63;;;0.63;;
60464;SDS011;46314;52.392;9.758;2022-10-16T00:45:16;2.83;;;0.98;;
60464;SDS011;46314;52.392;9.758;2022-10-16T00:47:44;2.33;;;1.08;;
60464;SDS011;46314;52.392;9.758;2022-10-16T00:50:13;6.00;;;1.13;;
60464;SDS011;46314;52.392;9.758;2022-10-16T00:52:44;1.33;;;0.85;;
60464;SDS011;46314;52.392;9.758;2022-10-16T00:55:14;1.77;;;0.88;;
60464;SDS011;46314;52.392;9.758;2022-10-16T00:57:41;3.13;;;0.90;;
60464;SDS011;46314;52.392;9.758;2022-10-16T01:00:09;4.40;;;1.00;;
60464;SDS011;46314;52.392;9.758;2022-10-16T01:02:37;3.22;;;1.30;;
60464;SDS011;46314;52.392;9.758;2022-10-16T01:05:05;1.50;;;0.88;;
60464;SDS011;46314;52.392;9.758;2022-10-16T01:07:35;1.80;;;0.82;;
60464;SDS011;46314;52.392;9.758;2022-10-16T01:10:11;3.92;;;1.08;;
60464;SDS011;46314;52.392;9.758;2022-10-16T01:12:47;2.88;;;1.50;;
60464;SDS011;46314;52.392;9.758;2022-10-16T01:15:18;2.40;;;1.08;;
60464;SDS011;46314;52.392;9.758;2022-10-16T01:17:51;2.65;;;1.30;;
60464;SDS011;46314;52.392;9.758;2022-10-16T01:20:26;3.47;;;1.15;;
60464;SDS011;46314;52.392;9.758;2022-10-16T01:23:02;3.25;;;1.17;;
60464;SDS011;46314;52.392;9.758;2022-10-16T01:25:39;3.25;;;1.48;;
60464;SDS011;46314;52.392;9.758;2022-10-16T01:28:25;2.33;;;1.35;;
60464;SDS011;46314;52.392;9.758;2022-10-16T01:30:57;2.85;;;1.42;;
60464;SDS011;46314;52.392;9.758;2022-10-16T01:33:26;4.05;;;1.95;;
60464;SDS011;46314;52.392;9.758;2022-10-16T01:35:58;1.83;;;1.38;;
60464;SDS011;46314;52.392;9.758;2022-10-16T01:38:29;4.10;;;1.60;;
60464;SDS011;46314;52.392;9.758;2022-10-16T01:41:00;2.05;;;1.48;;
60464;SDS011;46314;52.392;9.758;2022-10-16T01:43:33;3.55;;;1.73;;
60464;SDS011;46314;52.392;9.758;2022-10-16T01:46:02;2.65;;;1.90;;
60464;SDS011;46314;52.392;9.758;2022-10-16T01:48:29;3.65;;;1.80;;
60464;SDS011;46314;52.392;9.758;2022-10-16T01:51:01;2.97;;;1.92;;
60464;SDS011;46314;52.392;9.758;2022-10-16T01:53:31;2.65;;;2.05;;
60464;SDS011;46314;52.392;9.758;2022-10-16T01:55:59;3.15;;;2.28;;
60464;SDS011;46314;52.392;9.758;2022-10-16T01:58:28;4.00;;;2.30;;
60464;SDS011;46314;52.392;9.758;2022-10-16T02:00:57;5.15;;;2.38;;
60464;SDS011;46314;52.392;9.758;2022-10-16T02:03:24;2.95;;;2.35;;
60464;SDS011;46314;52.392;9.758;2022-10-16T02:05:51;4.28;;;2.45;;
60464;SDS011;46314;52.392;9.758;2022-10-16T02:08:20;9.43;;;3.03;;
60464;SDS011;46314;52.392;9.758;2022-10-16T02:10:48;5.93;;;2.85;;
60464;SDS011;46314;52.392;9.758;2022-10-16T02:13:17;6.32;;;2.70;;
60464;SDS011;46314;52.392;9.758;2022-10-16T02:15:48;5.28;;;2.83;;
60464;SDS011;46314;52.392;9.758;2022-10-16T02:18:15;4.10;;;2.55;;
60464;SDS011;46314;52.392;9.758;2022-10-16T02:20:43;6.65;;;2.70;;
60464;SDS011;46314;52.392;9.758;2022-10-16T02:23:16;4.63;;;1.90;;
60464;SDS011;46314;52.392;9.758;2022-10-16T02:28:17;5.50;;;2.22;;
60464;SDS011;46314;52.392;9.758;2022-10-16T02:30:46;8.10;;;2.17;;
60464;SDS011;46314;52.392;9.758;2022-10-16T02:33:17;5.20;;;1.83;;
60464;SDS011;46314;52.392;9.758;2022-10-16T02:35:47;5.28;;;2.00;;
60464;SDS011;46314;52.392;9.758;2022-10-16T02:38:15;2.47;;;1.88;;
60464;SDS011;46314;52.392;9.758;2022-10-16T02:40:43;5.38;;;2.22;;
60464;SDS011;46314;52.392;9.758;2022-10-16T02:43:11;5.57;;;2.00;;
60464;SDS011;46314;52.392;9.758;2022-10-16T02:45:39;3.70;;;2.10;;
60464;SDS011;46314;52.392;9.758;2022-10-16T02:48:05;4.60;;;2.28;;
60464;SDS011;46314;52.392;9.758;2022-10-16T02:50:33;4.95;;;2.33;;
60464;SDS011;46314;52.392;9.758;2022-10-16T02:53:00;7.50;;;2.05;;
60464;SDS011;46314;52.392;9.758;2022-10-16T02:55:27;4.40;;;1.90;;
60464;SDS011;46314;52.392;9.758;2022-10-16T02:57:54;3.97;;;1.58;;
60464;SDS011;46314;52.392;9.758;2022-10-16T03:00:20;2.35;;;1.23;;
60464;SDS011;46314;52.392;9.758;2022-10-16T03:02:47;6.10;;;2.15;;
60464;SDS011;46314;52.392;9.758;2022-10-16T03:05:14;6.15;;;1.83;;
60464;SDS011;46314;52.392;9.758;2022-10-16T03:07:42;4.80;;;2.00;;
60464;SDS011;46314;52.392;9.758;2022-10-16T03:10:08;3.67;;;1.90;;
60464;SDS011;46314;52.392;9.758;2022-10-16T03:12:35;6.32;;;1.95;;
60464;SDS011;46314;52.392;9.758;2022-10-16T03:15:03;5.63;;;2.10;;
60464;SDS011;46314;52.392;9.758;2022-10-16T03:17:31;4.28;;;2.25;;
60464;SDS011;46314;52.392;9.758;2022-10-16T03:19:58;5.15;;;1.85;;
60464;SDS011;46314;52.392;9.758;2022-10-16T03:22:24;4.60;;;1.92;;
60464;SDS011;46314;52.392;9.758;2022-10-16T03:24:52;3.35;;;1.75;;
60464;SDS011;46314;52.392;9.758;2022-10-16T03:27:18;3.15;;;1.73;;
60464;SDS011;46314;52.392;9.758;2022-10-16T03:29:45;5.57;;;2.33;;
60464;SDS011;46314;52.392;9.758;2022-10-16T03:32:11;3.95;;;2.10;;
60464;SDS011;46314;52.392;9.758;2022-10-16T03:34:38;5.55;;;2.40;;
60464;SDS011;46314;52.392;9.758;2022-10-16T03:37:04;4.78;;;2.13;;
60464;SDS011;46314;52.392;9.758;2022-10-16T03:39:31;7.13;;;2.35;;
60464;SDS011;46314;52.392;9.758;2022-10-16T03:41:58;4.32;;;2.25;;
60464;SDS011;46314;52.392;9.758;2022-10-16T03:44:25;5.38;;;1.88;;
60464;SDS011;46314;52.392;9.758;2022-10-16T03:46:51;4.25;;;1.92;;
60464;SDS011;46314;52.392;9.758;2022-10-16T03:49:18;7.78;;;1.92;;
60464;SDS011;46314;52.392;9.758;2022-10-16T03:51:44;3.95;;;2.08;;
60464;SDS011;46314;52.392;9.758;2022-10-16T03:54:10;7.68;;;2.15;;
60464;SDS011;46314;52.392;9.758;2022-10-16T03:56:37;7.15;;;2.58;;
60464;SDS011;46314;52.392;9.758;2022-10-16T03:59:05;4.25;;;2.08;;
60464;SDS011;46314;52.392;9.758;2022-10-16T04:01:32;3.75;;;2.00;;
60464;SDS011;46314;52.392;9.758;2022-10-16T04:03:58;5.32;;;2.40;;
60464;SDS011;46314;52.392;9.758;2022-10-16T04:06:24;2.45;;;1.90;;
60464;SDS011;46314;52.392;9.758;2022-10-16T04:08:51;4.57;;;1.80;;
60464;SDS011;46314;52.392;9.758;2022-10-16T04:11:17;5.90;;;2.33;;
60464;SDS011;46314;52.392;9.758;2022-10-16T04:13:44;5.47;;;2.45;;
60464;SDS011;46314;52.392;9.758;2022-10-16T04:16:12;6.15;;;2.17;;
60464;SDS011;46314;52.392;9.758;2022-10-16T04:18:38;4.28;;;1.85;;
60464;SDS011;46314;52.392;9.758;2022-10-16T04:21:05;10.75;;;2.33;;
60464;SDS011;46314;52.392;9.758;2022-10-16T04:23:32;4.55;;;1.90;;
60464;SDS011;46314;52.392;9.758;2022-10-16T04:25:59;4.50;;;2.00;;
60464;SDS011;46314;52.392;9.758;2022-10-16T04:28:25;6.45;;;2.45;;
60464;SDS011;46314;52.392;9.758;2022-10-16T04:30:52;6.80;;;2.80;;
60464;SDS011;46314;52.392;9.758;2022-10-16T04:33:20;5.55;;;2.50;;
60464;SDS011;46314;52.392;9.758;2022-10-16T04:35:55;6.45;;;2.78;;
60464;SDS011;46314;52.392;9.758;2022-10-16T04:38:22;5.90;;;2.08;;
60464;SDS011;46314;52.392;9.758;2022-10-16T04:40:49;6.35;;;2.08;;
60464;SDS011;46314;52.392;9.758;2022-10-16T04:43:15;5.63;;;2.42;;
60464;SDS011;46314;52.392;9.758;2022-10-16T04:45:42;3.00;;;2.15;;
60464;SDS011;46314;52.392;9.758;2022-10-16T04:48:08;10.02;;;2.40;;
60464;SDS011;46314;52.392;9.758;2022-10-16T04:50:36;5.05;;;2.00;;
60464;SDS011;46314;52.392;9.758;2022-10-16T04:53:03;10.25;;;2.88;;
60464;SDS011;46314;52.392;9.758;2022-10-16T04:55:29;4.90;;;2.45;;
60464;SDS011;46314;52.392;9.758;2022-10-16T04:57:56;4.13;;;2.30;;
60464;SDS011;46314;52.392;9.758;2022-10-16T05:00:22;4.25;;;2.42;;
60464;SDS011;46314;52.392;9.758;2022-10-16T05:02:49;4.15;;;2.00;;
60464;SDS011;46314;52.392;9.758;2022-10-16T05:05:15;5.88;;;2.22;;
60464;SDS011;46314;52.392;9.758;2022-10-16T05:07:43;7.85;;;3.10;;
60464;SDS011;46314;52.392;9.758;2022-10-16T05:10:10;4.45;;;2.53;;
60464;SDS011;46314;52.392;9.758;2022-10-16T05:12:36;6.25;;;2.92;;
60464;SDS011;46314;52.392;9.758;2022-10-16T05:15:03;3.75;;;2.50;;
60464;SDS011;46314;52.392;9.758;2022-10-16T05:17:31;6.72;;;2.53;;
60464;SDS011;46314;52.392;9.758;2022-10-16T05:19:57;6.25;;;2.67;;
60464;SDS011;46314;52.392;9.758;2022-10-16T05:22:23;11.45;;;3.08;;
60464;SDS011;46314;52.392;9.758;2022-10-16T05:24:51;7.20;;;2.40;;
60464;SDS011;46314;52.392;9.758;2022-10-16T05:27:18;4.13;;;2.50;;
60464;SDS011;46314;52.392;9.758;2022-10-16T05:29:44;8.43;;;2.65;;
60464;SDS011;46314;52.392;9.758;2022-10-16T05:32:11;4.07;;;2.13;;
60464;SDS011;46314;52.392;9.758;2022-10-16T05:34:37;5.68;;;2.70;;
60464;SDS011;46314;52.392;9.758;2022-10-16T05:37:04;5.80;;;2.53;;
60464;SDS011;46314;52.392;9.758;2022-10-16T05:39:31;3.00;;;2.33;;
60464;SDS011;46314;52.392;9.758;2022-10-16T05:41:58;4.32;;;2.30;;
60464;SDS011;46314;52.392;9.758;2022-10-16T05:44:25;7.30;;;2.65;;
60464;SDS011;46314;52.392;9.758;2022-10-16T05:46:51;4.30;;;2.40;;
60464;SDS011;46314;52.392;9.758;2022-10-16T05:49:18;4.85;;;3.08;;
60464;SDS011;46314;52.392;9.758;2022-10-16T05:51:44;6.47;;;3.20;;
60464;SDS011;46314;52.392;9.758;2022-10-16T05:54:11;3.90;;;2.75;;
60464;SDS011;46314;52.392;9.758;2022-10-16T05:56:37;4.88;;;2.70;;
60464;SDS011;46314;52.392;9.758;2022-10-16T05:59:05;4.07;;;2.70;;
60464;SDS011;46314;52.392;9.758;2022-10-16T06:01:32;4.47;;;2.55;;
60464;SDS011;46314;52.392;9.758;2022-10-16T06:03:59;6.35;;;3.05;;
60464;SDS011;46314;52.392;9.758;2022-10-16T06:06:26;6.03;;;2.95;;
60464;SDS011;46314;52.392;9.758;2022-10-16T06:08:53;3.65;;;2.60;;
60464;SDS011;46314;52.392;9.758;2022-10-16T06:11:21;6.43;;;2.90;;
60464;SDS011;46314;52.392;9.758;2022-10-16T06:13:49;4.55;;;2.47;;
60464;SDS011;46314;52.392;9.758;2022-10-16T06:16:18;5.10;;;3.08;;
60464;SDS011;46314;52.392;9.758;2022-10-16T06:18:45;4.45;;;2.60;;
60464;SDS011;46314;52.392;9.758;2022-10-16T06:21:12;4.10;;;2.90;;
60464;SDS011;46314;52.392;9.758;2022-10-16T06:23:42;3.50;;;2.95;;
60464;SDS011;46314;52.392;9.758;2022-10-16T06:26:10;7.45;;;2.67;;
60464;SDS011;46314;52.392;9.758;2022-10-16T06:28:38;8.80;;;2.55;;
60464;SDS011;46314;52.392;9.758;2022-10-16T06:31:05;3.58;;;2.33;;
60464;SDS011;46314;52.392;9.758;2022-10-16T06:33:35;4.60;;;2.38;;
60464;SDS011;46314;52.392;9.758;2022-10-16T06:36:03;5.63;;;2.13;;
60464;SDS011;46314;52.392;9.758;2022-10-16T06:38:30;4.68;;;2.05;;
60464;SDS011;46314;52.392;9.758;2022-10-16T06:40:57;2.42;;;1.80;;
60464;SDS011;46314;52.392;9.758;2022-10-16T06:43:24;3.28;;;1.85;;
60464;SDS011;46314;52.392;9.758;2022-10-16T06:45:51;2.83;;;2.10;;
60464;SDS011;46314;52.392;9.758;2022-10-16T06:48:18;10.05;;;2.75;;
60464;SDS011;46314;52.392;9.758;2022-10-16T06:50:55;6.15;;;1.92;;
60464;SDS011;46314;52.392;9.758;2022-10-16T06:53:22;3.42;;;1.80;;
60464;SDS011;46314;52.392;9.758;2022-10-16T06:55:49;4.07;;;1.80;;
60464;SDS011;46314;52.392;9.758;2022-10-16T06:58:17;6.38;;;2.47;;
60464;SDS011;46314;52.392;9.758;2022-10-16T07:00:43;3.45;;;1.58;;
60464;SDS011;46314;52.392;9.758;2022-10-16T07:03:10;3.83;;;2.08;;
60464;SDS011;46314;52.392;9.758;2022-10-16T07:05:37;3.15;;;2.10;;
60464;SDS011;46314;52.392;9.758;2022-10-16T07:08:05;4.75;;;1.80;;
60464;SDS011;46314;52.392;9.758;2022-10-16T07:10:32;3.33;;;1.70;;
60464;SDS011;46314;52.392;9.758;2022-10-16T07:12:58;4.95;;;1.70;;
60464;SDS011;46314;52.392;9.758;2022-10-16T07:15:25;3.58;;;1.95;;
60464;SDS011;46314;52.392;9.758;2022-10-16T07:17:52;4.13;;;1.80;;
60464;SDS011;46314;52.392;9.758;2022-10-16T07:20:19;3.45;;;1.77;;
60464;SDS011;46314;52.392;9.758;2022-10-16T07:22:46;1.98;;;1.50;;
60464;SDS011;46314;52.392;9.758;2022-10-16T07:25:13;2.53;;;1.70;;
60464;SDS011;46314;52.392;9.758;2022-10-16T07:27:40;3.20;;;2.10;;
60464;SDS011;46314;52.392;9.758;2022-10-16T07:30:07;2.10;;;1.65;;
60464;SDS011;46314;52.392;9.758;2022-10-16T07:32:34;2.38;;;1.25;;
60464;SDS011;46314;52.392;9.758;2022-10-16T07:35:01;3.13;;;1.92;;
60464;SDS011;46314;52.392;9.758;2022-10-16T07:37:27;3.47;;;1.42;;
60464;SDS011;46314;52.392;9.758;2022-10-16T07:39:54;3.45;;;1.65;;
60464;SDS011;46314;52.392;9.758;2022-10-16T07:42:22;2.28;;;1.50;;
60464;SDS011;46314;52.392;9.758;2022-10-16T07:44:48;2.40;;;1.30;;
60464;SDS011;46314;52.392;9.758;2022-10-16T07:47:15;2.20;;;1.58;;
60464;SDS011;46314;52.392;9.758;2022-10-16T07:49:41;2.50;;;1.40;;
60464;SDS011;46314;52.392;9.758;2022-10-16T07:52:08;1.88;;;1.23;;
60464;SDS011;46314;52.392;9.758;2022-10-16T07:54:34;4.50;;;2.05;;
60464;SDS011;46314;52.392;9.758;2022-10-16T07:57:00;3.72;;;2.10;;
60464;SDS011;46314;52.392;9.758;2022-10-16T07:59:28;3.08;;;1.77;;
60464;SDS011;46314;52.392;9.758;2022-10-16T08:01:55;2.67;;;1.50;;
60464;SDS011;46314;52.392;9.758;2022-10-16T08:04:21;1.92;;;1.50;;
60464;SDS011;46314;52.392;9.758;2022-10-16T08:06:48;3.35;;;1.52;;
60464;SDS011;46314;52.392;9.758;2022-10-16T08:09:14;3.55;;;1.23;;
60464;SDS011;46314;52.392;9.758;2022-10-16T08:11:40;2.65;;;1.42;;
60464;SDS011;46314;52.392;9.758;2022-10-16T08:14:07;3.22;;;1.40;;
60464;SDS011;46314;52.392;9.758;2022-10-16T08:16:35;1.40;;;1.23;;
60464;SDS011;46314;52.392;9.758;2022-10-16T08:19:01;2.20;;;1.38;;
60464;SDS011;46314;52.392;9.758;2022-10-16T08:21:28;2.75;;;1.20;;
60464;SDS011;46314;52.392;9.758;2022-10-16T08:23:54;3.03;;;1.45;;
60464;SDS011;46314;52.392;9.758;2022-10-16T08:26:23;1.33;;;1.15;;
60464;SDS011;46314;52.392;9.758;2022-10-16T08:28:51;4.53;;;1.27;;
60464;SDS011;46314;52.392;9.758;2022-10-16T08:31:19;1.55;;;1.05;;
60464;SDS011;46314;52.392;9.758;2022-10-16T08:33:48;2.55;;;1.00;;
60464;SDS011;46314;52.392;9.758;2022-10-16T08:36:15;4.85;;;1.05;;
60464;SDS011;46314;52.392;9.758;2022-10-16T08:38:42;1.65;;;1.30;;
60464;SDS011;46314;52.392;9.758;2022-10-16T08:41:14;2.00;;;1.02;;
60464;SDS011;46314;52.392;9.758;2022-10-16T08:46:46;2.28;;;1.23;;
60464;SDS011;46314;52.392;9.758;2022-10-16T08:49:20;2.20;;;1.00;;
60464;SDS011;46314;52.392;9.758;2022-10-16T08:51:47;2.60;;;1.17;;
60464;SDS011;46314;52.392;9.758;2022-10-16T08:54:17;2.38;;;1.10;;
60464;SDS011;46314;52.392;9.758;2022-10-16T08:56:53;2.05;;;1.30;;
60464;SDS011;46314;52.392;9.758;2022-10-16T08:59:20;2.47;;;1.48;;
60464;SDS011;46314;52.392;9.758;2022-10-16T09:01:47;2.03;;;1.05;;
60464;SDS011;46314;52.392;9.758;2022-10-16T09:04:32;1.40;;;1.27;;
60464;SDS011;46314;52.392;9.758;2022-10-16T09:07:23;1.70;;;1.10;;
60464;SDS011;46314;52.392;9.758;2022-10-16T09:10:08;1.60;;;1.00;;
60464;SDS011;46314;52.392;9.758;2022-10-16T09:12:45;1.90;;;1.00;;
60464;SDS011;46314;52.392;9.758;2022-10-16T09:15:21;2.55;;;1.20;;
60464;SDS011;46314;52.392;9.758;2022-10-16T09:17:56;1.83;;;1.08;;
60464;SDS011;46314;52.392;9.758;2022-10-16T09:20:32;2.50;;;1.20;;
60464;SDS011;46314;52.392;9.758;2022-10-16T09:23:10;1.90;;;1.38;;
60464;SDS011;46314;52.392;9.758;2022-10-16T09:25:45;2.58;;;1.27;;
60464;SDS011;46314;52.392;9.758;2022-10-16T09:28:13;6.40;;;1.45;;
60464;SDS011;46314;52.392;9.758;2022-10-16T09:30:40;3.33;;;1.23;;
60464;SDS011;46314;52.392;9.758;2022-10-16T09:33:07;4.18;;;1.50;;
60464;SDS011;46314;52.392;9.758;2022-10-16T09:35:38;3.22;;;1.30;;
60464;SDS011;46314;52.392;9.758;2022-10-16T09:38:07;3.20;;;1.17;;
60464;SDS011;46314;52.392;9.758;2022-10-16T09:40:35;1.58;;;0.90;;
60464;SDS011;46314;52.392;9.758;2022-10-16T09:43:09;1.85;;;1.08;;
60464;SDS011;46314;52.392;9.758;2022-10-16T09:45:52;2.60;;;1.05;;
60464;SDS011;46314;52.392;9.758;2022-10-16T09:48:20;2.13;;;1.20;;
60464;SDS011;46314;52.392;9.758;2022-10-16T09:50:56;1.75;;;1.15;;
60464;SDS011;46314;52.392;9.758;2022-10-16T09:53:23;1.40;;;0.93;;
60464;SDS011;46314;52.392;9.758;2022-10-16T09:55:50;2.75;;;1.10;;
60464;SDS011;46314;52.392;9.758;2022-10-16T09:58:20;2.60;;;1.20;;
60464;SDS011;46314;52.392;9.758;2022-10-16T10:00:51;3.20;;;1.27;;
60464;SDS011;46314;52.392;9.758;2022-10-16T10:03:25;3.33;;;1.17;;
60464;SDS011;46314;52.392;9.758;2022-10-16T10:06:01;0.98;;;0.77;;
60464;SDS011;46314;52.392;9.758;2022-10-16T10:08:40;2.67;;;1.00;;
60464;SDS011;46314;52.392;9.758;2022-10-16T10:11:07;6.95;;;1.35;;
60464;SDS011;46314;52.392;9.758;2022-10-16T10:13:40;4.35;;;1.20;;
60464;SDS011;46314;52.392;9.758;2022-10-16T10:16:06;2.95;;;0.90;;
60464;SDS011;46314;52.392;9.758;2022-10-16T10:18:33;2.95;;;1.13;;
60464;SDS011;46314;52.392;9.758;2022-10-16T10:21:01;2.30;;;1.02;;
60464;SDS011;46314;52.392;9.758;2022-10-16T10:23:30;1.77;;;1.48;;
60464;SDS011;46314;52.392;9.758;2022-10-16T10:25:57;2.25;;;1.00;;
60464;SDS011;46314;52.392;9.758;2022-10-16T10:28:35;3.65;;;1.23;;
60464;SDS011;46314;52.392;9.758;2022-10-16T10:31:17;1.65;;;0.82;;
60464;SDS011;46314;52.392;9.758;2022-10-16T10:33:49;2.72;;;1.17;;
60464;SDS011;46314;52.392;9.758;2022-10-16T10:36:25;2.03;;;0.80;;
60464;SDS011;46314;52.392;9.758;2022-10-16T10:38:57;2.85;;;0.85;;
60464;SDS011;46314;52.392;9.758;2022-10-16T10:41:41;2.63;;;0.85;;
60464;SDS011;46314;52.392;9.758;2022-10-16T10:44:26;3.03;;;0.93;;
60464;SDS011;46314;52.392;9.758;2022-10-16T10:47:05;3.30;;;1.35;;
60464;SDS011;46314;52.392;9.758;2022-10-16T10:52:24;4.53;;;1.35;;
60464;SDS011;46314;52.392;9.758;2022-10-16T10:55:08;3.85;;;1.25;;
60464;SDS011;46314;52.392;9.758;2022-10-16T10:57:40;4.85;;;1.15;;
60464;SDS011;46314;52.392;9.758;2022-10-16T11:00:18;2.42;;;1.20;;
60464;SDS011;46314;52.392;9.758;2022-10-16T11:02:49;4.00;;;1.25;;
60464;SDS011;46314;52.392;9.758;2022-10-16T11:05:33;2.95;;;1.38;;
60464;SDS011;46314;52.392;9.758;2022-10-16T11:08:08;4.13;;;1.30;;
60464;SDS011;46314;52.392;9.758;2022-10-16T11:10:43;3.30;;;0.90;;
60464;SDS011;46314;52.392;9.758;2022-10-16T11:13:26;1.85;;;1.05;;
60464;SDS011;46314;52.392;9.758;2022-10-16T11:15:58;4.03;;;1.40;;
60464;SDS011;46314;52.392;9.758;2022-10-16T11:18:30;3.30;;;1.13;;
60464;SDS011;46314;52.392;9.758;2022-10-16T11:21:06;3.05;;;1.15;;
60464;SDS011;46314;52.392;9.758;2022-10-16T11:23:38;2.55;;;0.90;;
60464;SDS011;46314;52.392;9.758;2022-10-16T11:26:11;2.80;;;0.63;;
60464;SDS011;46314;52.392;9.758;2022-10-16T11:28:44;1.40;;;0.60;;
60464;SDS011;46314;52.392;9.758;2022-10-16T11:31:15;2.92;;;1.20;;
60464;SDS011;46314;52.392;9.758;2022-10-16T11:33:47;5.78;;;1.73;;
60464;SDS011;46314;52.392;9.758;2022-10-16T11:36:22;2.75;;;0.85;;
60464;SDS011;46314;52.392;9.758;2022-10-16T11:38:55;1.02;;;0.93;;
60464;SDS011;46314;52.392;9.758;2022-10-16T11:41:27;2.10;;;0.90;;
60464;SDS011;46314;52.392;9.758;2022-10-16T11:44:02;2.67;;;0.93;;
60464;SDS011;46314;52.392;9.758;2022-10-16T11:46:44;2.80;;;1.27;;
60464;SDS011;46314;52.392;9.758;2022-10-16T11:49:37;1.58;;;0.85;;
60464;SDS011;46314;52.392;9.758;2022-10-16T11:52:06;3.20;;;1.30;;
60464;SDS011;46314;52.392;9.758;2022-10-16T11:54:43;1.52;;;1.00;;
60464;SDS011;46314;52.392;9.758;2022-10-16T11:57:14;2.17;;;0.95;;
60464;SDS011;46314;52.392;9.758;2022-10-16T11:59:45;4.53;;;1.08;;
60464;SDS011;46314;52.392;9.758;2022-10-16T12:02:26;3.63;;;0.90;;
60464;SDS011;46314;52.392;9.758;2022-10-16T12:05:01;3.33;;;1.00;;
60464;SDS011;46314;52.392;9.758;2022-10-16T12:07:38;4.45;;;1.13;;
60464;SDS011;46314;52.392;9.758;2022-10-16T12:10:17;4.20;;;1.23;;
60464;SDS011;46314;52.392;9.758;2022-10-16T12:12:53;1.52;;;0.80;;
60464;SDS011;46314;52.392;9.758;2022-10-16T12:15:21;3.33;;;1.10;;
60464;SDS011;46314;52.392;9.758;2022-10-16T12:18:20;3.85;;;0.98;;
60464;SDS011;46314;52.392;9.758;2022-10-16T12:20:53;3.20;;;0.90;;
60464;SDS011;46314;52.392;9.758;2022-10-16T12:23:21;2.10;;;0.93;;
60464;SDS011;46314;52.392;9.758;2022-10-16T12:25:54;2.22;;;0.80;;
60464;SDS011;46314;52.392;9.758;2022-10-16T12:28:26;3.20;;;1.00;;
60464;SDS011;46314;52.392;9.758;2022-10-16T12:30:54;3.22;;;0.93;;
60464;SDS011;46314;52.392;9.758;2022-10-16T12:33:24;3.88;;;1.05;;
60464;SDS011;46314;52.392;9.758;2022-10-16T12:35:52;2.95;;;1.27;;
60464;SDS011;46314;52.392;9.758;2022-10-16T12:38:20;1.88;;;0.98;;
60464;SDS011;46314;52.392;9.758;2022-10-16T12:40:56;2.22;;;0.75;;
60464;SDS011;46314;52.392;9.758;2022-10-16T12:43:26;2.63;;;0.65;;
60464;SDS011;46314;52.392;9.758;2022-10-16T12:46:03;3.78;;;1.17;;
60464;SDS011;46314;52.392;9.758;2022-10-16T12:48:31;2.25;;;1.00;;
60464;SDS011;46314;52.392;9.758;2022-10-16T12:51:22;2.13;;;0.88;;
60464;SDS011;46314;52.392;9.758;2022-10-16T12:54:00;2.43;;;0.70;;
60464;SDS011;46314;52.392;9.758;2022-10-16T12:56:31;2.80;;;1.25;;
60464;SDS011;46314;52.392;9.758;2022-10-16T12:59:14;2.33;;;1.20;;
60464;SDS011;46314;52.392;9.758;2022-10-16T13:01:52;1.75;;;1.10;;
60464;SDS011;46314;52.392;9.758;2022-10-16T13:04:37;1.13;;;0.70;;
60464;SDS011;46314;52.392;9.758;2022-10-16T13:07:33;1.77;;;0.98;;
60464;SDS011;46314;52.392;9.758;2022-10-16T13:10:13;3.80;;;1.33;;
60464;SDS011;46314;52.392;9.758;2022-10-16T13:12:52;2.38;;;1.10;;
60464;SDS011;46314;52.392;9.758;2022-10-16T13:15:35;1.25;;;0.75;;
60464;SDS011;46314;52.392;9.758;2022-10-16T13:18:15;2.58;;;0.80;;
60464;SDS011;46314;52.392;9.758;2022-10-16T13:20:54;2.53;;;1.00;;
60464;SDS011;46314;52.392;9.758;2022-10-16T13:23:29;3.57;;;1.43;;
60464;SDS011;46314;52.392;9.758;2022-10-16T13:26:06;4.53;;;1.13;;
60464;SDS011;46314;52.392;9.758;2022-10-16T13:28:40;2.72;;;1.10;;
60464;SDS011;46314;52.392;9.758;2022-10-16T13:31:10;4.05;;;1.10;;
60464;SDS011;46314;52.392;9.758;2022-10-16T13:33:43;1.90;;;0.52;;
60464;SDS011;46314;52.392;9.758;2022-10-16T13:36:20;3.33;;;0.77;;
60464;SDS011;46314;52.392;9.758;2022-10-16T13:38:48;1.80;;;0.75;;
60464;SDS011;46314;52.392;9.758;2022-10-16T13:41:26;4.35;;;1.05;;
60464;SDS011;46314;52.392;9.758;2022-10-16T13:43:54;2.30;;;0.98;;
60464;SDS011;46314;52.392;9.758;2022-10-16T13:46:23;3.65;;;1.05;;
60464;SDS011;46314;52.392;9.758;2022-10-16T13:48:57;3.65;;;0.98;;
60464;SDS011;46314;52.392;9.758;2022-10-16T13:51:25;1.42;;;1.02;;
60464;SDS011;46314;52.392;9.758;2022-10-16T13:53:52;3.72;;;1.38;;
60464;SDS011;46314;52.392;9.758;2022-10-16T13:56:21;1.63;;;1.10;;
60464;SDS011;46314;52.392;9.758;2022-10-16T13:58:58;2.85;;;1.17;;
60464;SDS011;46314;52.392;9.758;2022-10-16T14:01:26;1.60;;;0.75;;
60464;SDS011;46314;52.392;9.758;2022-10-16T14:04:00;1.55;;;0.93;;
60464;SDS011;46314;52.392;9.758;2022-10-16T14:06:30;4.50;;;0.73;;
60464;SDS011;46314;52.392;9.758;2022-10-16T14:08:58;2.70;;;0.70;;
60464;SDS011;46314;52.392;9.758;2022-10-16T14:11:27;2.65;;;0.93;;
60464;SDS011;46314;52.392;9.758;2022-10-16T14:13:55;4.60;;;1.58;;
60464;SDS011;46314;52.392;9.758;2022-10-16T14:16:23;3.35;;;1.10;;
60464;SDS011;46314;52.392;9.758;2022-10-16T14:18:55;2.50;;;1.10;;
60464;SDS011;46314;52.392;9.758;2022-10-16T14:21:23;3.05;;;0.90;;
60464;SDS011;46314;52.392;9.758;2022-10-16T14:23:50;3.33;;;0.77;;
60464;SDS011;46314;52.392;9.758;2022-10-16T14:26:17;1.55;;;0.88;;
60464;SDS011;46314;52.392;9.758;2022-10-16T14:28:47;1.70;;;0.80;;
60464;SDS011;46314;52.392;9.758;2022-10-16T14:34:04;3.83;;;1.20;;
60464;SDS011;46314;52.392;9.758;2022-10-16T14:36:31;1.10;;;0.55;;
60464;SDS011;46314;52.392;9.758;2022-10-16T14:39:01;4.10;;;1.45;;
60464;SDS011;46314;52.392;9.758;2022-10-16T14:41:29;2.28;;;1.00;;
60464;SDS011;46314;52.392;9.758;2022-10-16T14:43:58;3.00;;;0.90;;
60464;SDS011;46314;52.392;9.758;2022-10-16T14:46:29;4.57;;;2.00;;
60464;SDS011;46314;52.392;9.758;2022-10-16T14:49:02;2.05;;;1.02;;
60464;SDS011;46314;52.392;9.758;2022-10-16T14:51:39;4.75;;;1.23;;
60464;SDS011;46314;52.392;9.758;2022-10-16T14:54:07;2.78;;;1.48;;
60464;SDS011;46314;52.392;9.758;2022-10-16T14:56:35;2.97;;;1.20;;
60464;SDS011;46314;52.392;9.758;2022-10-16T14:59:12;2.33;;;1.13;;
60464;SDS011;46314;52.392;9.758;2022-10-16T15:01:42;3.75;;;1.70;;
60464;SDS011;46314;52.392;9.758;2022-10-16T15:04:10;1.73;;;0.88;;
60464;SDS011;46314;52.392;9.758;2022-10-16T15:06:38;3.20;;;1.08;;
60464;SDS011;46314;52.392;9.758;2022-10-16T15:09:05;3.78;;;1.30;;
60464;SDS011;46314;52.392;9.758;2022-10-16T15:11:31;2.45;;;0.80;;
60464;SDS011;46314;52.392;9.758;2022-10-16T15:13:58;3.35;;;1.30;;
60464;SDS011;46314;52.392;9.758;2022-10-16T15:16:25;1.52;;;0.70;;